sensor_id;sensor_type;location;lat;lon;timestamp;P1;durP1;ratioP1;P2;durP2;ratioP2
12593;SDS011;6362;50.208;9.182;2023-02-14T00:00:17;18.13;;;10.75;;
12593;SDS011;6362;50.208;9.182;2023-02-14T00:02:44;15.90;;;10.43;;
12593;SDS011;6362;50.208;9.182;2023-02-14T00:05:09;18.10;;;10.68;;
12593;SDS011;6362;50.208;9.182;2023-02-14T00:07:35;15.93;;;10.43;;
12593;SDS011;6362;50.208;9.182;2023-02-14T00:10:00;18.13;;;10.77;;
12593;SDS011;6362;50.208;9.182;2023-02-14T00:12:25;16.70;;;9.85;;
12593;SDS011;6362;50.208;9.182;2023-02-14T00:14:51;16.98;;;10.88;;
12593;SDS011;6362;50.208;9.182;2023-02-14T00:17:35;16.50;;;9.85;;
12593;SDS011;6362;50.208;9.182;2023-02-14T00:20:00;21.45;;;11.73;;
12593;SDS011;6362;50.208;9.182;2023-02-14T00:22:26;19.02;;;10.77;;
12593;SDS011;6362;50.208;9.182;2023-02-14T00:24:51;18.02;;;10.82;;
12593;SDS011;6362;50.208;9.182;2023-02-14T00:27:16;20.50;;;10.07;;
12593;SDS011;6362;50.208;9.182;2023-02-14T00:29:42;17.90;;;10.93;;
12593;SDS011;6362;50.208;9.182;2023-02-14T00:32:07;20.33;;;10.18;;
12593;SDS011;6362;50.208;9.182;2023-02-14T00:34:33;18.73;;;11.20;;
12593;SDS011;6362;50.208;9.182;2023-02-14T00:37:00;19.08;;;10.80;;
12593;SDS011;6362;50.208;9.182;2023-02-14T00:39:26;18.10;;;10.77;;
12593;SDS011;6362;50.208;9.182;2023-02-14T00:41:52;20.40;;;11.43;;
12593;SDS011;6362;50.208;9.182;2023-02-14T00:44:17;18.45;;;9.77;;
12593;SDS011;6362;50.208;9.182;2023-02-14T00:46:43;18.42;;;11.27;;
12593;SDS011;6362;50.208;9.182;2023-02-14T00:49:08;21.55;;;11.63;;
12593;SDS011;6362;50.208;9.182;2023-02-14T00:51:34;16.83;;;10.57;;
12593;SDS011;6362;50.208;9.182;2023-02-14T00:53:59;19.08;;;9.60;;
12593;SDS011;6362;50.208;9.182;2023-02-14T00:56:25;16.85;;;9.95;;
12593;SDS011;6362;50.208;9.182;2023-02-14T00:58:51;20.15;;;11.27;;
12593;SDS011;6362;50.208;9.182;2023-02-14T01:01:16;18.42;;;10.57;;
12593;SDS011;6362;50.208;9.182;2023-02-14T01:03:42;19.73;;;11.05;;
12593;SDS011;6362;50.208;9.182;2023-02-14T01:06:08;18.95;;;11.40;;
12593;SDS011;6362;50.208;9.182;2023-02-14T01:08:33;21.45;;;11.95;;
12593;SDS011;6362;50.208;9.182;2023-02-14T01:11:06;20.65;;;11.57;;
12593;SDS011;6362;50.208;9.182;2023-02-14T01:13:33;19.33;;;12.18;;
12593;SDS011;6362;50.208;9.182;2023-02-14T01:15:58;20.20;;;11.32;;
12593;SDS011;6362;50.208;9.182;2023-02-14T01:18:30;19.40;;;12.30;;
12593;SDS011;6362;50.208;9.182;2023-02-14T01:20:56;21.75;;;12.15;;
12593;SDS011;6362;50.208;9.182;2023-02-14T01:23:21;19.33;;;11.57;;
12593;SDS011;6362;50.208;9.182;2023-02-14T01:25:47;20.80;;;12.48;;
12593;SDS011;6362;50.208;9.182;2023-02-14T01:28:12;19.30;;;12.52;;
12593;SDS011;6362;50.208;9.182;2023-02-14T01:30:37;20.55;;;11.15;;
12593;SDS011;6362;50.208;9.182;2023-02-14T01:33:03;20.92;;;11.82;;
12593;SDS011;6362;50.208;9.182;2023-02-14T01:35:28;19.90;;;11.38;;
12593;SDS011;6362;50.208;9.182;2023-02-14T01:37:54;20.67;;;12.80;;
12593;SDS011;6362;50.208;9.182;2023-02-14T01:40:19;18.33;;;11.85;;
12593;SDS011;6362;50.208;9.182;2023-02-14T01:42:45;22.48;;;13.10;;
12593;SDS011;6362;50.208;9.182;2023-02-14T01:45:20;25.23;;;13.35;;
12593;SDS011;6362;50.208;9.182;2023-02-14T01:47:48;22.02;;;13.15;;
12593;SDS011;6362;50.208;9.182;2023-02-14T01:52:50;25.73;;;14.85;;
12593;SDS011;6362;50.208;9.182;2023-02-14T01:55:20;25.85;;;14.25;;
12593;SDS011;6362;50.208;9.182;2023-02-14T01:57:49;29.42;;;15.52;;
12593;SDS011;6362;50.208;9.182;2023-02-14T02:00:20;26.50;;;14.45;;
12593;SDS011;6362;50.208;9.182;2023-02-14T02:03:04;19.55;;;11.23;;
12593;SDS011;6362;50.208;9.182;2023-02-14T02:05:32;19.25;;;11.38;;
12593;SDS011;6362;50.208;9.182;2023-02-14T02:07:58;19.90;;;11.75;;
12593;SDS011;6362;50.208;9.182;2023-02-14T02:10:25;17.80;;;11.00;;
12593;SDS011;6362;50.208;9.182;2023-02-14T02:12:51;19.42;;;11.60;;
12593;SDS011;6362;50.208;9.182;2023-02-14T02:15:17;20.95;;;12.15;;
12593;SDS011;6362;50.208;9.182;2023-02-14T02:17:52;24.65;;;14.55;;
12593;SDS011;6362;50.208;9.182;2023-02-14T02:23:23;29.15;;;16.60;;
12593;SDS011;6362;50.208;9.182;2023-02-14T02:31:20;32.47;;;17.60;;
12593;SDS011;6362;50.208;9.182;2023-02-14T02:37:43;30.05;;;16.45;;
12593;SDS011;6362;50.208;9.182;2023-02-14T02:40:52;30.33;;;15.80;;
12593;SDS011;6362;50.208;9.182;2023-02-14T02:43:21;30.10;;;16.17;;
12593;SDS011;6362;50.208;9.182;2023-02-14T02:46:10;28.85;;;16.38;;
12593;SDS011;6362;50.208;9.182;2023-02-14T02:49:10;31.85;;;17.25;;
12593;SDS011;6362;50.208;9.182;2023-02-14T02:57:06;30.67;;;15.63;;
12593;SDS011;6362;50.208;9.182;2023-02-14T02:59:40;24.83;;;14.65;;
12593;SDS011;6362;50.208;9.182;2023-02-14T03:02:10;29.08;;;16.63;;
12593;SDS011;6362;50.208;9.182;2023-02-14T03:04:44;32.13;;;16.95;;
12593;SDS011;6362;50.208;9.182;2023-02-14T03:07:17;29.58;;;16.08;;
12593;SDS011;6362;50.208;9.182;2023-02-14T03:12:49;29.02;;;16.30;;
12593;SDS011;6362;50.208;9.182;2023-02-14T03:21:14;26.35;;;14.82;;
12593;SDS011;6362;50.208;9.182;2023-02-14T03:23:44;27.70;;;15.10;;
12593;SDS011;6362;50.208;9.182;2023-02-14T03:26:17;27.77;;;15.85;;
12593;SDS011;6362;50.208;9.182;2023-02-14T03:29:31;27.77;;;14.80;;
12593;SDS011;6362;50.208;9.182;2023-02-14T03:31:50;27.77;;;14.80;;
12593;SDS011;6362;50.208;9.182;2023-02-14T03:40:09;25.73;;;15.07;;
12593;SDS011;6362;50.208;9.182;2023-02-14T03:42:36;27.23;;;15.27;;
12593;SDS011;6362;50.208;9.182;2023-02-14T03:45:07;27.05;;;15.35;;
12593;SDS011;6362;50.208;9.182;2023-02-14T03:47:36;23.52;;;13.98;;
12593;SDS011;6362;50.208;9.182;2023-02-14T03:50:09;28.20;;;15.45;;
12593;SDS011;6362;50.208;9.182;2023-02-14T03:52:38;28.10;;;16.00;;
12593;SDS011;6362;50.208;9.182;2023-02-14T03:55:06;26.58;;;14.65;;
12593;SDS011;6362;50.208;9.182;2023-02-14T03:57:36;27.60;;;15.77;;
12593;SDS011;6362;50.208;9.182;2023-02-14T04:00:07;30.80;;;17.03;;
12593;SDS011;6362;50.208;9.182;2023-02-14T04:02:42;28.60;;;15.65;;
12593;SDS011;6362;50.208;9.182;2023-02-14T04:05:24;30.38;;;16.08;;
12593;SDS011;6362;50.208;9.182;2023-02-14T04:07:52;29.75;;;16.27;;
12593;SDS011;6362;50.208;9.182;2023-02-14T04:10:19;33.70;;;17.58;;
12593;SDS011;6362;50.208;9.182;2023-02-14T04:12:46;27.83;;;16.05;;
12593;SDS011;6362;50.208;9.182;2023-02-14T04:15:11;27.38;;;14.98;;
12593;SDS011;6362;50.208;9.182;2023-02-14T04:17:38;29.63;;;15.40;;
12593;SDS011;6362;50.208;9.182;2023-02-14T04:20:22;29.52;;;15.07;;
12593;SDS011;6362;50.208;9.182;2023-02-14T04:22:48;31.52;;;16.85;;
12593;SDS011;6362;50.208;9.182;2023-02-14T04:25:15;31.63;;;17.40;;
12593;SDS011;6362;50.208;9.182;2023-02-14T04:27:41;27.42;;;15.90;;
12593;SDS011;6362;50.208;9.182;2023-02-14T04:30:07;27.48;;;15.15;;
12593;SDS011;6362;50.208;9.182;2023-02-14T04:32:33;29.88;;;15.63;;
12593;SDS011;6362;50.208;9.182;2023-02-14T04:34:59;30.25;;;16.17;;
12593;SDS011;6362;50.208;9.182;2023-02-14T04:37:24;30.25;;;16.25;;
12593;SDS011;6362;50.208;9.182;2023-02-14T04:39:50;24.30;;;13.68;;
12593;SDS011;6362;50.208;9.182;2023-02-14T04:42:15;27.77;;;15.80;;
12593;SDS011;6362;50.208;9.182;2023-02-14T04:44:41;28.75;;;15.30;;
12593;SDS011;6362;50.208;9.182;2023-02-14T04:47:07;26.27;;;14.85;;
12593;SDS011;6362;50.208;9.182;2023-02-14T04:49:33;23.80;;;14.40;;
12593;SDS011;6362;50.208;9.182;2023-02-14T04:51:59;28.15;;;16.13;;
12593;SDS011;6362;50.208;9.182;2023-02-14T04:54:25;26.55;;;14.55;;
12593;SDS011;6362;50.208;9.182;2023-02-14T04:56:50;31.42;;;16.67;;
12593;SDS011;6362;50.208;9.182;2023-02-14T04:59:16;29.60;;;15.48;;
12593;SDS011;6362;50.208;9.182;2023-02-14T05:01:42;31.25;;;15.88;;
12593;SDS011;6362;50.208;9.182;2023-02-14T05:04:07;24.08;;;14.05;;
12593;SDS011;6362;50.208;9.182;2023-02-14T05:06:33;26.60;;;14.80;;
12593;SDS011;6362;50.208;9.182;2023-02-14T05:08:59;30.23;;;16.35;;
12593;SDS011;6362;50.208;9.182;2023-02-14T05:11:25;24.98;;;15.05;;
12593;SDS011;6362;50.208;9.182;2023-02-14T05:13:52;26.92;;;15.40;;
12593;SDS011;6362;50.208;9.182;2023-02-14T05:16:17;26.65;;;14.98;;
12593;SDS011;6362;50.208;9.182;2023-02-14T05:18:43;27.90;;;14.80;;
12593;SDS011;6362;50.208;9.182;2023-02-14T05:21:08;27.70;;;15.35;;
12593;SDS011;6362;50.208;9.182;2023-02-14T05:23:34;25.23;;;14.68;;
12593;SDS011;6362;50.208;9.182;2023-02-14T05:26:00;30.63;;;15.35;;
12593;SDS011;6362;50.208;9.182;2023-02-14T05:28:25;27.85;;;16.77;;
12593;SDS011;6362;50.208;9.182;2023-02-14T05:30:51;24.80;;;14.30;;
12593;SDS011;6362;50.208;9.182;2023-02-14T05:33:16;23.63;;;13.95;;
12593;SDS011;6362;50.208;9.182;2023-02-14T05:35:42;28.50;;;16.48;;
12593;SDS011;6362;50.208;9.182;2023-02-14T05:38:07;26.35;;;14.05;;
12593;SDS011;6362;50.208;9.182;2023-02-14T05:40:33;27.40;;;14.77;;
12593;SDS011;6362;50.208;9.182;2023-02-14T05:42:58;26.10;;;14.30;;
12593;SDS011;6362;50.208;9.182;2023-02-14T05:45:24;26.58;;;15.75;;
12593;SDS011;6362;50.208;9.182;2023-02-14T05:47:50;24.63;;;14.40;;
12593;SDS011;6362;50.208;9.182;2023-02-14T05:50:16;29.73;;;15.82;;
12593;SDS011;6362;50.208;9.182;2023-02-14T05:52:42;25.20;;;14.15;;
12593;SDS011;6362;50.208;9.182;2023-02-14T05:55:08;24.38;;;15.00;;
12593;SDS011;6362;50.208;9.182;2023-02-14T05:57:34;23.85;;;14.55;;
12593;SDS011;6362;50.208;9.182;2023-02-14T05:59:59;23.10;;;13.27;;
12593;SDS011;6362;50.208;9.182;2023-02-14T06:02:25;24.58;;;14.23;;
12593;SDS011;6362;50.208;9.182;2023-02-14T06:04:50;20.20;;;12.98;;
12593;SDS011;6362;50.208;9.182;2023-02-14T06:07:16;25.08;;;14.63;;
12593;SDS011;6362;50.208;9.182;2023-02-14T06:09:42;23.70;;;14.43;;
12593;SDS011;6362;50.208;9.182;2023-02-14T06:12:07;25.70;;;15.57;;
12593;SDS011;6362;50.208;9.182;2023-02-14T06:14:32;23.13;;;13.45;;
12593;SDS011;6362;50.208;9.182;2023-02-14T06:16:58;23.33;;;13.90;;
12593;SDS011;6362;50.208;9.182;2023-02-14T06:19:23;22.80;;;14.10;;
12593;SDS011;6362;50.208;9.182;2023-02-14T06:21:49;27.23;;;14.88;;
12593;SDS011;6362;50.208;9.182;2023-02-14T06:24:14;23.67;;;14.63;;
12593;SDS011;6362;50.208;9.182;2023-02-14T06:26:40;22.48;;;12.75;;
12593;SDS011;6362;50.208;9.182;2023-02-14T06:29:05;21.17;;;13.05;;
12593;SDS011;6362;50.208;9.182;2023-02-14T06:31:31;26.13;;;15.55;;
12593;SDS011;6362;50.208;9.182;2023-02-14T06:33:56;22.73;;;14.10;;
12593;SDS011;6362;50.208;9.182;2023-02-14T06:36:22;22.63;;;13.27;;
12593;SDS011;6362;50.208;9.182;2023-02-14T06:38:48;25.75;;;14.57;;
12593;SDS011;6362;50.208;9.182;2023-02-14T06:41:14;25.77;;;13.55;;
12593;SDS011;6362;50.208;9.182;2023-02-14T06:43:41;23.38;;;12.95;;
12593;SDS011;6362;50.208;9.182;2023-02-14T06:46:08;26.40;;;13.52;;
12593;SDS011;6362;50.208;9.182;2023-02-14T06:48:33;24.70;;;14.10;;
12593;SDS011;6362;50.208;9.182;2023-02-14T06:50:59;24.45;;;14.75;;
12593;SDS011;6362;50.208;9.182;2023-02-14T06:53:25;28.02;;;15.25;;
12593;SDS011;6362;50.208;9.182;2023-02-14T06:55:50;25.55;;;13.82;;
12593;SDS011;6362;50.208;9.182;2023-02-14T06:58:16;28.88;;;15.50;;
12593;SDS011;6362;50.208;9.182;2023-02-14T07:00:41;24.23;;;14.52;;
12593;SDS011;6362;50.208;9.182;2023-02-14T07:03:07;26.98;;;16.17;;
12593;SDS011;6362;50.208;9.182;2023-02-14T07:05:32;26.02;;;14.75;;
12593;SDS011;6362;50.208;9.182;2023-02-14T07:07:58;28.60;;;15.85;;
12593;SDS011;6362;50.208;9.182;2023-02-14T07:10:24;28.17;;;14.65;;
12593;SDS011;6362;50.208;9.182;2023-02-14T07:12:49;23.88;;;13.98;;
12593;SDS011;6362;50.208;9.182;2023-02-14T07:15:15;32.08;;;17.58;;
12593;SDS011;6362;50.208;9.182;2023-02-14T07:17:40;25.27;;;14.07;;
12593;SDS011;6362;50.208;9.182;2023-02-14T07:20:08;22.45;;;13.05;;
12593;SDS011;6362;50.208;9.182;2023-02-14T07:22:35;21.83;;;13.75;;
12593;SDS011;6362;50.208;9.182;2023-02-14T07:25:01;28.20;;;15.57;;
12593;SDS011;6362;50.208;9.182;2023-02-14T07:27:28;29.08;;;15.07;;
12593;SDS011;6362;50.208;9.182;2023-02-14T07:29:54;26.52;;;15.23;;
12593;SDS011;6362;50.208;9.182;2023-02-14T07:32:19;24.85;;;14.02;;
12593;SDS011;6362;50.208;9.182;2023-02-14T07:34:45;29.27;;;16.17;;
12593;SDS011;6362;50.208;9.182;2023-02-14T07:37:11;23.70;;;14.68;;
12593;SDS011;6362;50.208;9.182;2023-02-14T07:39:37;26.08;;;14.60;;
12593;SDS011;6362;50.208;9.182;2023-02-14T07:42:02;26.88;;;15.07;;
12593;SDS011;6362;50.208;9.182;2023-02-14T07:44:28;18.48;;;11.40;;
12593;SDS011;6362;50.208;9.182;2023-02-14T07:46:53;19.55;;;12.23;;
12593;SDS011;6362;50.208;9.182;2023-02-14T07:49:19;24.27;;;14.15;;
12593;SDS011;6362;50.208;9.182;2023-02-14T07:51:44;21.10;;;11.10;;
12593;SDS011;6362;50.208;9.182;2023-02-14T07:54:09;20.20;;;12.77;;
12593;SDS011;6362;50.208;9.182;2023-02-14T07:56:35;18.60;;;11.73;;
12593;SDS011;6362;50.208;9.182;2023-02-14T07:59:00;18.77;;;11.48;;
12593;SDS011;6362;50.208;9.182;2023-02-14T08:01:26;18.75;;;11.50;;
12593;SDS011;6362;50.208;9.182;2023-02-14T08:03:51;21.15;;;13.55;;
12593;SDS011;6362;50.208;9.182;2023-02-14T08:06:17;20.75;;;12.15;;
12593;SDS011;6362;50.208;9.182;2023-02-14T08:08:43;22.63;;;14.30;;
12593;SDS011;6362;50.208;9.182;2023-02-14T08:11:09;22.05;;;12.65;;
12593;SDS011;6362;50.208;9.182;2023-02-14T08:13:35;16.73;;;10.45;;
12593;SDS011;6362;50.208;9.182;2023-02-14T08:16:01;21.77;;;12.60;;
12593;SDS011;6362;50.208;9.182;2023-02-14T08:18:36;17.90;;;11.57;;
12593;SDS011;6362;50.208;9.182;2023-02-14T08:21:04;17.92;;;12.35;;
12593;SDS011;6362;50.208;9.182;2023-02-14T08:23:31;16.40;;;10.25;;
12593;SDS011;6362;50.208;9.182;2023-02-14T08:25:56;15.45;;;9.65;;
12593;SDS011;6362;50.208;9.182;2023-02-14T08:28:22;12.80;;;8.13;;
12593;SDS011;6362;50.208;9.182;2023-02-14T08:30:49;9.82;;;7.22;;
12593;SDS011;6362;50.208;9.182;2023-02-14T08:33:15;11.25;;;7.45;;
12593;SDS011;6362;50.208;9.182;2023-02-14T08:35:41;13.65;;;8.20;;
12593;SDS011;6362;50.208;9.182;2023-02-14T08:38:06;10.88;;;7.20;;
12593;SDS011;6362;50.208;9.182;2023-02-14T08:40:32;12.55;;;6.40;;
12593;SDS011;6362;50.208;9.182;2023-02-14T08:42:59;10.05;;;6.65;;
12593;SDS011;6362;50.208;9.182;2023-02-14T08:45:24;11.55;;;7.57;;
12593;SDS011;6362;50.208;9.182;2023-02-14T08:47:50;11.95;;;7.75;;
12593;SDS011;6362;50.208;9.182;2023-02-14T08:50:17;9.15;;;6.18;;
12593;SDS011;6362;50.208;9.182;2023-02-14T08:52:43;10.05;;;6.22;;
12593;SDS011;6362;50.208;9.182;2023-02-14T08:55:09;10.38;;;6.32;;
12593;SDS011;6362;50.208;9.182;2023-02-14T08:57:35;10.32;;;6.50;;
12593;SDS011;6362;50.208;9.182;2023-02-14T09:00:02;10.50;;;6.13;;
12593;SDS011;6362;50.208;9.182;2023-02-14T09:02:28;9.45;;;6.03;;
12593;SDS011;6362;50.208;9.182;2023-02-14T09:04:54;10.73;;;7.20;;
12593;SDS011;6362;50.208;9.182;2023-02-14T09:07:19;10.52;;;6.32;;
12593;SDS011;6362;50.208;9.182;2023-02-14T09:09:45;11.55;;;6.28;;
12593;SDS011;6362;50.208;9.182;2023-02-14T09:12:10;9.50;;;6.53;;
12593;SDS011;6362;50.208;9.182;2023-02-14T09:14:36;9.00;;;6.18;;
12593;SDS011;6362;50.208;9.182;2023-02-14T09:17:05;9.40;;;6.07;;
12593;SDS011;6362;50.208;9.182;2023-02-14T09:19:34;9.85;;;6.65;;
12593;SDS011;6362;50.208;9.182;2023-02-14T09:22:01;9.35;;;6.28;;
12593;SDS011;6362;50.208;9.182;2023-02-14T09:24:30;8.85;;;5.60;;
12593;SDS011;6362;50.208;9.182;2023-02-14T09:26:56;9.23;;;5.57;;
12593;SDS011;6362;50.208;9.182;2023-02-14T09:29:22;9.40;;;5.65;;
12593;SDS011;6362;50.208;9.182;2023-02-14T09:31:51;9.07;;;6.32;;
12593;SDS011;6362;50.208;9.182;2023-02-14T09:34:17;9.63;;;5.80;;
12593;SDS011;6362;50.208;9.182;2023-02-14T09:37:01;8.00;;;5.35;;
12593;SDS011;6362;50.208;9.182;2023-02-14T09:39:45;8.68;;;4.78;;
12593;SDS011;6362;50.208;9.182;2023-02-14T09:45:05;8.23;;;5.30;;
12593;SDS011;6362;50.208;9.182;2023-02-14T09:50:21;6.60;;;4.85;;
12593;SDS011;6362;50.208;9.182;2023-02-14T09:53:00;8.48;;;5.72;;
12593;SDS011;6362;50.208;9.182;2023-02-14T09:55:51;9.77;;;5.53;;
12593;SDS011;6362;50.208;9.182;2023-02-14T09:58:35;7.65;;;5.47;;
12593;SDS011;6362;50.208;9.182;2023-02-14T10:12:01;8.32;;;5.32;;
12593;SDS011;6362;50.208;9.182;2023-02-14T10:14:28;7.53;;;4.70;;
12593;SDS011;6362;50.208;9.182;2023-02-14T10:19:41;9.35;;;4.93;;
12593;SDS011;6362;50.208;9.182;2023-02-14T10:22:19;8.95;;;5.13;;
12593;SDS011;6362;50.208;9.182;2023-02-14T10:24:51;7.80;;;5.55;;
12593;SDS011;6362;50.208;9.182;2023-02-14T10:27:29;7.50;;;5.10;;
12593;SDS011;6362;50.208;9.182;2023-02-14T10:30:17;9.60;;;5.20;;
12593;SDS011;6362;50.208;9.182;2023-02-14T10:32:53;9.48;;;5.35;;
12593;SDS011;6362;50.208;9.182;2023-02-14T10:38:13;7.25;;;4.72;;
12593;SDS011;6362;50.208;9.182;2023-02-14T10:43:38;8.23;;;5.30;;
12593;SDS011;6362;50.208;9.182;2023-02-14T10:51:15;7.55;;;4.93;;
12593;SDS011;6362;50.208;9.182;2023-02-14T10:56:45;8.48;;;5.43;;
12593;SDS011;6362;50.208;9.182;2023-02-14T10:59:44;9.10;;;5.15;;
12593;SDS011;6362;50.208;9.182;2023-02-14T11:02:17;8.95;;;5.43;;
12593;SDS011;6362;50.208;9.182;2023-02-14T11:04:48;7.80;;;5.10;;
12593;SDS011;6362;50.208;9.182;2023-02-14T11:07:15;9.45;;;5.38;;
12593;SDS011;6362;50.208;9.182;2023-02-14T11:09:43;8.48;;;5.50;;
12593;SDS011;6362;50.208;9.182;2023-02-14T11:12:09;8.13;;;5.28;;
12593;SDS011;6362;50.208;9.182;2023-02-14T11:14:36;8.05;;;5.38;;
12593;SDS011;6362;50.208;9.182;2023-02-14T11:19:55;7.55;;;5.13;;
12593;SDS011;6362;50.208;9.182;2023-02-14T11:22:32;10.00;;;5.40;;
12593;SDS011;6362;50.208;9.182;2023-02-14T11:25:06;8.20;;;5.60;;
12593;SDS011;6362;50.208;9.182;2023-02-14T11:27:43;9.88;;;6.05;;
12593;SDS011;6362;50.208;9.182;2023-02-14T11:30:29;9.23;;;5.78;;
12593;SDS011;6362;50.208;9.182;2023-02-14T11:32:58;9.35;;;5.25;;
12593;SDS011;6362;50.208;9.182;2023-02-14T11:35:25;8.63;;;6.00;;
12593;SDS011;6362;50.208;9.182;2023-02-14T11:37:58;8.63;;;5.25;;
12593;SDS011;6362;50.208;9.182;2023-02-14T11:40:43;8.73;;;5.63;;
12593;SDS011;6362;50.208;9.182;2023-02-14T11:45:38;7.57;;;5.10;;
12593;SDS011;6362;50.208;9.182;2023-02-14T11:50:53;11.13;;;5.30;;
12593;SDS011;6362;50.208;9.182;2023-02-14T11:53:44;6.47;;;4.68;;
12593;SDS011;6362;50.208;9.182;2023-02-14T11:56:14;8.13;;;5.70;;
12593;SDS011;6362;50.208;9.182;2023-02-14T12:01:20;8.38;;;6.22;;
12593;SDS011;6362;50.208;9.182;2023-02-14T12:03:56;9.52;;;6.38;;
12593;SDS011;6362;50.208;9.182;2023-02-14T12:06:29;9.80;;;6.10;;
12593;SDS011;6362;50.208;9.182;2023-02-14T12:11:53;6.53;;;5.22;;
12593;SDS011;6362;50.208;9.182;2023-02-14T12:14:39;8.20;;;6.13;;
12593;SDS011;6362;50.208;9.182;2023-02-14T12:22:14;7.28;;;5.80;;
12593;SDS011;6362;50.208;9.182;2023-02-14T12:24:53;10.02;;;6.03;;
12593;SDS011;6362;50.208;9.182;2023-02-14T12:27:42;7.97;;;5.35;;
12593;SDS011;6362;50.208;9.182;2023-02-14T12:30:28;8.15;;;6.35;;
12593;SDS011;6362;50.208;9.182;2023-02-14T12:32:56;9.10;;;5.55;;
12593;SDS011;6362;50.208;9.182;2023-02-14T12:38:06;7.22;;;6.07;;
12593;SDS011;6362;50.208;9.182;2023-02-14T13:13:47;6.88;;;5.72;;
12593;SDS011;6362;50.208;9.182;2023-02-14T13:21:36;8.05;;;5.82;;
12593;SDS011;6362;50.208;9.182;2023-02-14T13:24:15;7.70;;;5.90;;
12593;SDS011;6362;50.208;9.182;2023-02-14T13:26:47;7.53;;;5.45;;
12593;SDS011;6362;50.208;9.182;2023-02-14T13:29:19;8.48;;;6.72;;
12593;SDS011;6362;50.208;9.182;2023-02-14T13:31:47;7.57;;;6.38;;
12593;SDS011;6362;50.208;9.182;2023-02-14T13:34:19;7.85;;;5.80;;
12593;SDS011;6362;50.208;9.182;2023-02-14T13:36:57;7.20;;;5.53;;
12593;SDS011;6362;50.208;9.182;2023-02-14T13:39:31;7.65;;;5.90;;
12593;SDS011;6362;50.208;9.182;2023-02-14T13:42:00;10.75;;;6.20;;
12593;SDS011;6362;50.208;9.182;2023-02-14T13:44:45;8.95;;;6.28;;
12593;SDS011;6362;50.208;9.182;2023-02-14T13:47:18;7.53;;;6.22;;
12593;SDS011;6362;50.208;9.182;2023-02-14T13:50:01;7.07;;;5.78;;
12593;SDS011;6362;50.208;9.182;2023-02-14T13:55:22;8.43;;;5.78;;
12593;SDS011;6362;50.208;9.182;2023-02-14T13:58:02;8.60;;;6.43;;
12593;SDS011;6362;50.208;9.182;2023-02-14T14:00:57;8.38;;;6.05;;
12593;SDS011;6362;50.208;9.182;2023-02-14T14:08:35;7.18;;;5.25;;
12593;SDS011;6362;50.208;9.182;2023-02-14T14:11:03;8.23;;;5.85;;
12593;SDS011;6362;50.208;9.182;2023-02-14T14:16:23;7.70;;;6.20;;
12593;SDS011;6362;50.208;9.182;2023-02-14T14:19:03;6.43;;;5.35;;
12593;SDS011;6362;50.208;9.182;2023-02-14T14:22:03;8.45;;;6.20;;
12593;SDS011;6362;50.208;9.182;2023-02-14T14:24:33;9.20;;;6.07;;
12593;SDS011;6362;50.208;9.182;2023-02-14T14:29:41;7.78;;;6.30;;
12593;SDS011;6362;50.208;9.182;2023-02-14T14:32:11;7.68;;;6.47;;
12593;SDS011;6362;50.208;9.182;2023-02-14T14:34:50;8.05;;;6.57;;
12593;SDS011;6362;50.208;9.182;2023-02-14T14:37:27;11.75;;;8.68;;
12593;SDS011;6362;50.208;9.182;2023-02-14T14:40:02;7.50;;;5.90;;
12593;SDS011;6362;50.208;9.182;2023-02-14T14:42:35;6.50;;;5.47;;
12593;SDS011;6362;50.208;9.182;2023-02-14T14:45:04;6.30;;;5.25;;
12593;SDS011;6362;50.208;9.182;2023-02-14T14:47:56;5.20;;;4.70;;
12593;SDS011;6362;50.208;9.182;2023-02-14T14:50:28;5.72;;;4.93;;
12593;SDS011;6362;50.208;9.182;2023-02-14T14:52:58;8.23;;;4.63;;
12593;SDS011;6362;50.208;9.182;2023-02-14T14:55:28;5.60;;;4.60;;
12593;SDS011;6362;50.208;9.182;2023-02-14T14:57:57;6.53;;;5.07;;
12593;SDS011;6362;50.208;9.182;2023-02-14T15:03:00;4.93;;;4.15;;
12593;SDS011;6362;50.208;9.182;2023-02-14T15:05:41;5.53;;;4.80;;
12593;SDS011;6362;50.208;9.182;2023-02-14T15:08:12;6.30;;;5.05;;
12593;SDS011;6362;50.208;9.182;2023-02-14T15:10:46;5.57;;;4.30;;
12593;SDS011;6362;50.208;9.182;2023-02-14T15:18:52;5.78;;;4.85;;
12593;SDS011;6362;50.208;9.182;2023-02-14T15:21:21;6.22;;;4.68;;
12593;SDS011;6362;50.208;9.182;2023-02-14T15:23:47;5.30;;;4.32;;
12593;SDS011;6362;50.208;9.182;2023-02-14T15:26:21;6.18;;;4.82;;
12593;SDS011;6362;50.208;9.182;2023-02-14T15:28:54;5.97;;;4.78;;
12593;SDS011;6362;50.208;9.182;2023-02-14T15:31:21;8.02;;;4.95;;
12593;SDS011;6362;50.208;9.182;2023-02-14T15:33:51;7.00;;;4.90;;
12593;SDS011;6362;50.208;9.182;2023-02-14T15:36:17;7.00;;;5.13;;
12593;SDS011;6362;50.208;9.182;2023-02-14T15:38:45;8.38;;;5.90;;
12593;SDS011;6362;50.208;9.182;2023-02-14T15:41:11;6.82;;;4.90;;
12593;SDS011;6362;50.208;9.182;2023-02-14T15:43:38;8.63;;;5.32;;
12593;SDS011;6362;50.208;9.182;2023-02-14T15:46:15;7.28;;;5.22;;
12593;SDS011;6362;50.208;9.182;2023-02-14T15:48:52;7.10;;;5.03;;
12593;SDS011;6362;50.208;9.182;2023-02-14T15:51:27;7.45;;;4.95;;
12593;SDS011;6362;50.208;9.182;2023-02-14T15:53:59;7.30;;;5.40;;
12593;SDS011;6362;50.208;9.182;2023-02-14T15:56:27;8.52;;;5.47;;
12593;SDS011;6362;50.208;9.182;2023-02-14T15:59:24;9.43;;;6.60;;
12593;SDS011;6362;50.208;9.182;2023-02-14T16:01:57;8.50;;;5.30;;
12593;SDS011;6362;50.208;9.182;2023-02-14T16:04:30;9.95;;;6.25;;
12593;SDS011;6362;50.208;9.182;2023-02-14T16:09:31;11.48;;;6.70;;
12593;SDS011;6362;50.208;9.182;2023-02-14T16:12:12;8.00;;;5.15;;
12593;SDS011;6362;50.208;9.182;2023-02-14T16:14:58;7.35;;;5.03;;
12593;SDS011;6362;50.208;9.182;2023-02-14T16:17:34;8.40;;;6.15;;
12593;SDS011;6362;50.208;9.182;2023-02-14T16:20:17;10.80;;;6.50;;
12593;SDS011;6362;50.208;9.182;2023-02-14T16:23:13;10.65;;;6.88;;
12593;SDS011;6362;50.208;9.182;2023-02-14T16:25:39;11.73;;;6.82;;
12593;SDS011;6362;50.208;9.182;2023-02-14T16:28:05;11.63;;;7.85;;
12593;SDS011;6362;50.208;9.182;2023-02-14T16:30:30;10.52;;;6.53;;
12593;SDS011;6362;50.208;9.182;2023-02-14T16:32:56;8.70;;;5.38;;
12593;SDS011;6362;50.208;9.182;2023-02-14T16:35:23;8.98;;;6.03;;
12593;SDS011;6362;50.208;9.182;2023-02-14T16:37:49;10.65;;;7.00;;
12593;SDS011;6362;50.208;9.182;2023-02-14T16:40:16;10.18;;;6.10;;
12593;SDS011;6362;50.208;9.182;2023-02-14T16:42:44;11.30;;;6.68;;
12593;SDS011;6362;50.208;9.182;2023-02-14T16:45:14;11.05;;;6.10;;
12593;SDS011;6362;50.208;9.182;2023-02-14T16:47:40;10.75;;;6.20;;
12593;SDS011;6362;50.208;9.182;2023-02-14T16:50:06;11.18;;;6.65;;
12593;SDS011;6362;50.208;9.182;2023-02-14T16:52:32;10.88;;;6.80;;
12593;SDS011;6362;50.208;9.182;2023-02-14T16:54:57;9.32;;;5.97;;
12593;SDS011;6362;50.208;9.182;2023-02-14T16:57:26;9.13;;;6.13;;
12593;SDS011;6362;50.208;9.182;2023-02-14T16:59:56;10.30;;;6.88;;
12593;SDS011;6362;50.208;9.182;2023-02-14T17:02:21;13.52;;;6.93;;
12593;SDS011;6362;50.208;9.182;2023-02-14T17:04:52;12.52;;;6.90;;
12593;SDS011;6362;50.208;9.182;2023-02-14T17:07:17;12.63;;;6.43;;
12593;SDS011;6362;50.208;9.182;2023-02-14T17:09:46;12.02;;;6.65;;
12593;SDS011;6362;50.208;9.182;2023-02-14T17:12:19;9.40;;;6.03;;
12593;SDS011;6362;50.208;9.182;2023-02-14T17:14:48;11.50;;;6.68;;
12593;SDS011;6362;50.208;9.182;2023-02-14T17:17:17;14.73;;;7.10;;
12593;SDS011;6362;50.208;9.182;2023-02-14T17:19:43;12.90;;;7.07;;
12593;SDS011;6362;50.208;9.182;2023-02-14T17:22:09;11.70;;;6.40;;
12593;SDS011;6362;50.208;9.182;2023-02-14T17:24:37;12.73;;;6.50;;
12593;SDS011;6362;50.208;9.182;2023-02-14T17:27:03;10.90;;;6.50;;
12593;SDS011;6362;50.208;9.182;2023-02-14T17:29:28;11.50;;;6.40;;
12593;SDS011;6362;50.208;9.182;2023-02-14T17:31:54;10.55;;;6.07;;